Terminal Aerodrome Forecast
Issued by NWS

Home | Current Version | Previous Version | Text Only | Print | Product List | Glossary On
Versions: 1 2 3 4 5 6 7 8 9 10 11 12 13 14 15 16 17 18 19 20 21
000
FTUS43 KGRR 171700
TAFLAN
TAF
KLAN 171739Z 1718/1818 28013G20KT P6SM -SHSN OVC025
     FM172100 28013KT P6SM -SHSN OVC015
     FM180200 28011KT P6SM OVC025
     FM180800 28006KT P6SM OVC015=

USA.gov is the U.S. government's official web portal to all federal, state and local government web resources and services.